Time;durP1;ratioP1;P1;durP2;ratioP2;P2;SDS_P1;SDS_P2;PMS_P1;PMS_P2;Temp;Humidity;BMP_temperature;BMP_pressure;BME280_temperature;BME280_humidity;BME280_pressure;Samples;Min_cycle;Max_cycle;Signal;HPM_P1;HPM_P2
2022/06/06 00:02:16;;;;;;;5.17;4.67;;;;;;;15.72;100.00;100821.44;5065779;28;20433;-73
2022/06/06 00:04:42;;;;;;;5.00;4.60;;;;;;;16.03;100.00;100915.78;5063740;28;20567;-73
2022/06/06 00:07:07;;;;;;;5.40;4.63;;;;;;;15.94;100.00;100871.22;5063790;28;20233;-73
2022/06/06 00:09:34;;;;;;;4.90;4.30;;;;;;;16.36;100.00;100925.22;5058651;28;20190;-73
2022/06/06 00:12:02;;;;;;;5.03;4.53;;;;;;;16.30;100.00;100915.34;5067182;28;20208;-73
2022/06/06 00:14:28;;;;;;;4.33;4.03;;;;;;;15.88;100.00;100841.53;5067098;28;20452;-74
2022/06/06 00:16:53;;;;;;;5.23;4.73;;;;;;;16.15;100.00;100866.28;5064373;28;20468;-73
2022/06/06 00:19:19;;;;;;;5.57;4.97;;;;;;;15.99;100.00;100860.50;5060819;28;20586;-74
2022/06/06 00:21:46;;;;;;;5.27;4.77;;;;;;;16.31;100.00;100916.97;5061213;28;20629;-73
2022/06/06 00:24:12;;;;;;;4.70;4.30;;;;;;;15.76;100.00;100806.38;5063760;28;20237;-74
2022/06/06 00:26:37;;;;;;;4.73;4.33;;;;;;;16.39;100.00;100902.28;5063092;28;20594;-74
2022/06/06 00:29:04;;;;;;;5.17;4.70;;;;;;;16.08;100.00;100873.69;5061590;28;20980;-74
2022/06/06 00:37:00;;;;;;;5.43;4.83;;;;;;;16.10;100.00;100861.56;5064562;28;20515;-74
2022/06/06 00:39:27;;;;;;;5.57;5.13;;;;;;;16.14;100.00;100857.34;5062673;28;20462;-74
2022/06/06 00:41:54;;;;;;;5.30;4.20;;;;;;;16.11;100.00;100856.97;5056223;28;20193;-74
2022/06/06 00:44:28;;;;;;;5.03;4.53;;;;;;;16.30;100.00;100893.69;5063164;28;20520;-74
2022/06/06 00:47:11;;;;;;;4.97;4.50;;;;;;;16.26;100.00;100897.94;5062015;28;20439;-74
2022/06/06 00:49:41;;;;;;;4.80;4.40;;;;;;;16.30;100.00;100887.47;5065691;28;20449;-74
2022/06/06 00:52:13;;;;;;;6.60;4.60;;;;;;;16.25;100.00;100867.31;5060216;28;20500;-74
2022/06/06 00:54:40;;;;;;;5.83;5.20;;;;;;;16.23;100.00;100874.88;5062948;28;20456;-74
2022/06/06 00:57:10;;;;;;;5.47;5.00;;;;;;;15.96;100.00;100857.44;5068925;28;20444;-74
2022/06/06 00:59:37;;;;;;;5.17;4.77;;;;;;;16.21;100.00;100887.00;5065149;28;20528;-73
2022/06/06 01:02:04;;;;;;;4.93;4.53;;;;;;;16.16;100.00;100854.38;5061777;28;20904;-72
2022/06/06 01:04:30;;;;;;;5.33;4.87;;;;;;;15.81;100.00;100793.81;5064664;28;20601;-73
2022/06/06 01:06:56;;;;;;;6.23;5.73;;;;;;;16.33;100.00;100866.16;5062900;28;20444;-73
2022/06/06 01:09:25;;;;;;;5.57;5.07;;;;;;;16.09;100.00;100838.28;5061820;28;20449;-73
2022/06/06 01:11:59;;;;;;;5.87;5.27;;;;;;;16.34;100.00;100869.69;5065866;28;20459;-73
2022/06/06 01:14:28;;;;;;;6.30;5.70;;;;;;;16.27;100.00;100857.09;5059711;28;20452;-73
2022/06/06 01:17:23;;;;;;;8.20;7.10;;;;;;;16.25;100.00;100875.44;5060284;28;20467;-72
2022/06/06 01:20:13;;;;;;;8.00;7.20;;;;;;;16.28;100.00;100874.97;5068397;28;20959;-73
2022/06/06 01:23:07;;;;;;;8.10;7.40;;;;;;;16.17;100.00;100864.16;5066442;28;20433;-69
2022/06/06 01:25:56;;;;;;;8.00;7.37;;;;;;;16.24;100.00;100876.50;5064789;28;20888;-72
2022/06/06 01:28:39;;;;;;;9.00;8.20;;;;;;;16.20;100.00;100888.03;5060009;28;20448;-73
2022/06/06 01:31:11;;;;;;;7.90;7.20;;;;;;;16.27;100.00;100886.88;5066978;28;20457;-72
2022/06/06 01:34:08;;;;;;;10.80;9.80;;;;;;;16.06;100.00;100902.88;5070292;28;20437;-71
2022/06/06 01:36:35;;;;;;;9.47;8.57;;;;;;;16.18;100.00;100901.00;5060386;28;21053;-73
2022/06/06 01:39:05;;;;;;;9.87;8.83;;;;;;;15.87;100.00;100878.59;5067465;28;20919;-74
2022/06/06 01:41:45;;;;;;;9.73;8.90;;;;;;;16.19;100.00;100910.75;5067704;28;20517;-73
2022/06/06 01:44:16;;;;;;;10.67;9.73;;;;;;;15.81;100.00;100869.53;5068614;28;20439;-73
2022/06/06 01:46:42;;;;;;;9.60;8.80;;;;;;;15.86;100.00;100917.53;5063490;28;20433;-74
2022/06/06 01:49:11;;;;;;;8.60;7.80;;;;;;;15.63;100.00;100901.22;5066960;28;20441;-76
2022/06/06 01:51:37;;;;;;;7.60;6.83;;;;;;;15.22;100.00;100843.38;5063199;28;20469;-75
2022/06/06 01:54:02;;;;;;;7.20;6.53;;;;;;;15.88;100.00;100930.81;5064706;28;20847;-76
2022/06/06 01:56:32;;;;;;;8.20;7.20;;;;;;;15.50;100.00;100921.13;5067104;28;20215;-75
2022/06/06 01:58:57;;;;;;;7.83;7.13;;;;;;;14.63;100.00;100813.38;5062915;28;20671;-75
2022/06/06 02:01:23;;;;;;;8.93;7.07;;;;;;;15.39;100.00;100941.69;5063479;28;20460;-75
2022/06/06 02:03:49;;;;;;;6.77;6.17;;;;;;;15.32;100.00;100941.75;5070192;28;20647;-76
2022/06/06 02:06:15;;;;;;;7.40;6.43;;;;;;;15.34;100.00;100949.63;5067860;28;20458;-76
2022/06/06 02:08:42;;;;;;;7.93;7.00;;;;;;;15.26;100.00;100950.75;5065269;28;20301;-75
2022/06/06 02:11:08;;;;;;;7.37;6.67;;;;;;;14.79;100.00;100892.97;5071496;28;20203;-75
2022/06/06 02:13:34;;;;;;;6.67;6.00;;;;;;;15.06;100.00;100942.06;5067465;28;20951;-75
2022/06/06 02:16:00;;;;;;;7.90;6.00;;;;;;;14.83;100.00;100915.75;5062965;28;20509;-74
2022/06/06 02:18:26;;;;;;;5.30;4.80;;;;;;;14.99;100.00;100941.34;5071139;28;20214;-74
2022/06/06 02:20:51;;;;;;;6.30;4.60;;;;;;;14.79;100.00;100911.84;5068017;28;20531;-74
2022/06/06 02:23:17;;;;;;;5.60;4.63;;;;;;;14.83;100.00;100940.06;5064854;28;20221;-74
2022/06/06 02:25:43;;;;;;;5.87;4.40;;;;;;;14.84;100.00;100926.34;5067973;28;20252;-76
2022/06/06 02:28:08;;;;;;;5.20;4.20;;;;;;;15.11;100.00;100970.06;5064398;28;20188;-75
2022/06/06 02:30:36;;;;;;;5.27;4.53;;;;;;;14.91;100.00;100945.97;5064921;28;20190;-75
2022/06/06 02:33:03;;;;;;;4.43;4.03;;;;;;;14.59;100.00;100898.56;5066404;28;20271;-76
2022/06/06 02:35:33;;;;;;;6.33;3.90;;;;;;;14.80;100.00;100965.63;5067402;28;20460;-75
2022/06/06 02:37:59;;;;;;;3.90;3.50;;;;;;;14.80;100.00;100956.69;5071852;28;20440;-75
2022/06/06 02:40:26;;;;;;;4.57;4.10;;;;;;;14.98;100.00;100983.72;5065609;28;20885;-76
2022/06/06 02:42:53;;;;;;;4.70;4.20;;;;;;;14.63;100.00;100938.38;5070278;28;20469;-75
2022/06/06 02:45:19;;;;;;;4.60;4.20;;;;;;;14.31;100.00;100882.81;5068422;28;20484;-75
2022/06/06 02:47:48;;;;;;;5.13;4.60;;;;;;;15.13;100.00;101000.41;5073317;28;20451;-75
2022/06/06 02:50:16;;;;;;;5.13;4.37;;;;;;;14.98;100.00;100993.69;5070642;28;20440;-75
2022/06/06 02:52:43;;;;;;;4.93;4.10;;;;;;;14.59;100.00;100942.56;5052684;28;20577;-75
2022/06/06 02:55:10;;;;;;;7.80;4.47;;;;;;;14.92;100.00;101001.63;5064429;28;20887;-75
2022/06/06 02:57:37;;;;;;;4.83;4.17;;;;;;;14.36;100.00;100902.69;5062831;28;20436;-74
2022/06/06 03:00:04;;;;;;;5.57;4.10;;;;;;;14.66;100.00;100970.31;5062577;28;20536;-73
2022/06/06 03:02:32;;;;;;;5.97;5.27;;;;;;;14.69;100.00;101004.16;5069664;28;20433;-74
2022/06/06 03:04:58;;;;;;;5.47;4.97;;;;;;;14.56;100.00;100991.63;5065455;28;20465;-74
2022/06/06 03:07:37;;;;;;;5.63;5.13;;;;;;;14.66;100.00;101008.13;5065342;28;20449;-77
2022/06/06 03:10:21;;;;;;;7.17;5.97;;;;;;;14.72;100.00;101028.00;5064023;28;20182;-74
2022/06/06 03:13:02;;;;;;;7.67;6.07;;;;;;;14.58;100.00;101054.31;5064997;28;20455;-75
2022/06/06 03:22:31;;;;;;;4.90;4.40;;;;;;;13.92;100.00;100958.47;5064386;28;21045;-74
2022/06/06 03:25:02;;;;;;;5.37;4.70;;;;;;;14.59;100.00;101049.72;5065658;28;20456;-78
2022/06/06 03:27:56;;;;;;;6.57;5.03;;;;;;;14.35;100.00;101017.09;5063069;28;20444;-75
2022/06/06 03:30:45;;;;;;;4.80;4.00;;;;;;;14.19;100.00;101020.31;5057840;28;20453;-74
2022/06/06 03:33:25;;;;;;;6.00;4.70;;;;;;;14.31;100.00;101067.13;5063430;28;20933;-74
2022/06/06 03:36:09;;;;;;;3.90;3.60;;;;;;;14.44;100.00;101068.91;5055844;28;21063;-75
2022/06/06 03:38:54;;;;;;;5.40;4.20;;;;;;;14.43;100.00;101064.53;5066354;28;20437;-77
2022/06/06 03:41:40;;;;;;;5.60;3.87;;;;;;;14.42;100.00;101071.00;5064177;28;20464;-74
2022/06/06 03:44:27;;;;;;;4.63;3.60;;;;;;;14.43;100.00;101088.84;5066476;28;20435;-74
2022/06/06 03:46:58;;;;;;;5.50;3.70;;;;;;;14.04;100.00;101038.69;5068353;28;20424;-75
2022/06/06 03:49:32;;;;;;;5.53;3.43;;;;;;;14.47;100.00;101085.50;5061984;28;20778;-75
2022/06/06 03:52:00;;;;;;;3.57;2.50;;;;;;;14.54;100.00;101095.44;5061600;28;20866;-74
2022/06/06 03:54:48;;;;;;;4.07;3.30;;;;;;;14.37;100.00;101095.09;5066455;28;20511;-75
2022/06/06 03:57:15;;;;;;;3.27;2.97;;;;;;;14.35;100.00;101097.19;5063281;28;20436;-75
2022/06/06 03:59:44;;;;;;;2.60;2.40;;;;;;;14.37;100.00;101101.31;5061316;28;23253;-75
2022/06/06 04:02:15;;;;;;;3.50;3.03;;;;;;;14.31;100.00;101102.19;5068231;28;20921;-75
2022/06/06 04:04:42;;;;;;;2.90;2.70;;;;;;;14.40;100.00;101116.25;5061035;28;20487;-75
2022/06/06 04:07:07;;;;;;;2.37;2.17;;;;;;;13.59;100.00;101017.94;5064364;28;20494;-76
2022/06/06 04:09:34;;;;;;;3.70;2.80;;;;;;;13.87;100.00;101089.59;5065053;28;20475;-75
2022/06/06 04:12:19;;;;;;;2.87;2.67;;;;;;;14.10;100.00;101094.44;5067007;28;20289;-74
2022/06/06 04:15:11;;;;;;;3.20;2.50;;;;;;;13.62;100.00;101025.59;5059875;28;20567;-74
2022/06/06 04:18:04;;;;;;;2.50;2.23;;;;;;;14.27;100.00;101119.06;5068424;28;20520;-75
2022/06/06 04:20:55;;;;;;;2.43;2.00;;;;;;;14.13;100.00;101112.91;5067787;28;20432;-75
2022/06/06 04:23:38;;;;;;;2.50;2.30;;;;;;;14.20;100.00;101121.75;5054332;28;20766;-76
2022/06/06 04:26:16;;;;;;;2.27;2.07;;;;;;;14.29;100.00;101134.00;5063954;28;20445;-76
2022/06/06 04:29:28;;;;;;;4.10;2.87;;;;;;;14.03;100.00;101094.50;5046604;28;20460;-75
2022/06/06 04:32:35;;;;;;;3.00;2.33;;;;;;;14.35;100.00;101133.13;5062444;28;20552;-76
2022/06/06 04:35:06;;;;;;;3.10;2.70;;;;;;;14.25;100.00;101140.84;5016070;28;20456;-75
2022/06/06 04:38:00;;;;;;;3.97;3.00;;;;;;;14.32;100.00;101138.94;5068387;28;20439;-74
2022/06/06 04:40:35;;;;;;;3.67;2.73;;;;;;;14.35;100.00;101132.25;5061373;28;20453;-75
2022/06/06 04:43:28;;;;;;;3.60;3.20;;;;;;;14.22;100.00;101135.88;5061938;28;20477;-75
2022/06/06 04:46:05;;;;;;;5.73;3.13;;;;;;;14.14;100.00;101134.25;5064980;28;20456;-75
2022/06/06 04:48:34;;;;;;;3.40;3.10;;;;;;;14.10;100.00;101157.31;5063513;28;20440;-75
2022/06/06 04:51:01;;;;;;;4.20;3.27;;;;;;;13.46;100.00;101037.69;5067747;28;20490;-75
2022/06/06 04:53:30;;;;;;;2.83;2.63;;;;;;;14.04;100.00;101131.19;5064120;28;20443;-74
2022/06/06 04:55:56;;;;;;;3.43;2.87;;;;;;;14.07;100.00;101132.66;5062724;28;20466;-74
2022/06/06 04:58:27;;;;;;;4.73;3.57;;;;;;;13.85;100.00;101097.88;5062582;28;20867;-74
2022/06/06 05:00:54;;;;;;;3.97;2.83;;;;;;;13.55;100.00;101039.13;5065920;28;20505;-76
2022/06/06 05:03:20;;;;;;;3.53;2.57;;;;;;;12.50;100.00;100938.69;5069251;28;21004;-75
2022/06/06 05:05:57;;;;;;;3.90;2.80;;;;;;;14.10;100.00;101165.41;5063008;28;20465;-75
2022/06/06 05:08:32;;;;;;;2.80;2.57;;;;;;;14.24;100.00;101166.19;5070926;28;20187;-75
2022/06/06 05:11:13;;;;;;;3.27;2.43;;;;;;;14.20;100.00;101164.94;5067183;28;20873;-75
2022/06/06 05:13:49;;;;;;;2.70;2.50;;;;;;;13.70;100.00;101103.53;5066528;28;20486;-74
2022/06/06 05:16:20;;;;;;;2.40;2.20;;;;;;;14.23;100.00;101168.06;5068123;28;20468;-75
2022/06/06 05:19:16;;;;;;;2.87;2.57;;;;;;;14.23;100.00;101176.16;5070979;28;20927;-75
2022/06/06 05:21:59;;;;;;;3.23;1.97;;;;;;;14.20;100.00;101175.72;5070982;28;20428;-75
2022/06/06 05:24:29;;;;;;;2.17;1.97;;;;;;;14.16;100.00;101177.22;5068599;28;20461;-76
2022/06/06 05:27:16;;;;;;;2.10;1.90;;;;;;;13.98;100.00;101167.13;5067749;28;21028;-77
2022/06/06 05:30:01;;;;;;;2.00;1.80;;;;;;;14.17;100.00;101192.34;5066812;28;20563;-76
2022/06/06 05:32:34;;;;;;;2.10;1.90;;;;;;;13.52;100.00;101087.22;5070373;28;20601;-76
2022/06/06 05:35:22;;;;;;;2.60;1.80;;;;;;;14.11;100.00;101185.94;5071451;28;20464;-76
2022/06/06 05:38:12;;;;;;;2.27;1.90;;;;;;;14.13;100.00;101191.13;5068225;28;20764;-76
2022/06/06 05:40:58;;;;;;;2.23;1.80;;;;;;;14.29;100.00;101200.59;5066564;28;20527;-76
2022/06/06 05:43:47;;;;;;;1.70;1.60;;;;;;;14.14;100.00;101187.38;5076080;28;20439;-75
2022/06/06 05:46:25;;;;;;;2.13;1.90;;;;;;;14.14;100.00;101211.66;5065604;28;20981;-75
2022/06/06 05:48:51;;;;;;;2.37;2.10;;;;;;;14.07;100.00;101211.69;5068879;28;20440;-75
2022/06/06 05:51:55;;;;;;;1.80;1.70;;;;;;;14.15;100.00;101222.25;5068683;28;20474;-75
2022/06/06 05:54:41;;;;;;;1.67;1.57;;;;;;;14.03;100.00;101221.25;5068089;28;20191;-76
2022/06/06 05:57:34;;;;;;;2.13;1.93;;;;;;;14.27;100.00;101213.50;5072230;28;20524;-74
2022/06/06 06:00:09;;;;;;;2.33;2.10;;;;;;;14.15;100.00;101229.50;5069513;28;20800;-74
2022/06/06 06:02:43;;;;;;;2.60;2.40;;;;;;;14.11;100.00;101231.78;5066494;28;20428;-74
2022/06/06 06:05:33;;;;;;;3.13;2.80;;;;;;;14.05;100.00;101239.91;5068743;28;20476;-74
2022/06/06 06:08:45;;;;;;;4.40;2.70;;;;;;;13.93;100.00;101229.75;5065827;28;20917;-74
2022/06/06 06:11:33;;;;;;;4.80;3.60;;;;;;;13.90;100.00;101237.47;5007936;28;20569;-73
2022/06/06 06:14:05;;;;;;;6.03;3.30;;;;;;;13.93;100.00;101248.66;5029367;28;20446;-74
2022/06/06 06:16:34;;;;;;;5.40;4.20;;;;;;;13.47;100.00;101201.03;5083334;28;20476;-74
2022/06/06 06:19:08;;;;;;;6.90;4.50;;;;;;;13.76;100.00;101261.72;5069619;28;20432;-74
2022/06/06 06:21:42;;;;;;;5.80;3.90;;;;;;;13.72;100.00;101255.13;5071639;28;20432;-74
2022/06/06 06:24:11;;;;;;;4.70;3.90;;;;;;;13.79;100.00;101273.97;5069488;28;20449;-75
2022/06/06 06:26:38;;;;;;;5.30;4.00;;;;;;;13.24;100.00;101196.03;5069187;28;20491;-74
2022/06/06 06:29:07;;;;;;;5.30;4.00;;;;;;;13.89;100.00;101271.69;5066659;28;20884;-74
2022/06/06 06:32:00;;;;;;;7.17;4.30;;;;;;;13.90;100.00;101273.34;5069842;28;20453;-73
2022/06/06 06:34:28;;;;;;;5.83;3.87;;;;;;;13.94;100.00;101280.00;5069465;28;20933;-74
2022/06/06 06:37:15;;;;;;;7.03;4.80;;;;;;;13.81;100.00;101282.69;5063870;28;20446;-73
2022/06/06 06:40:14;;;;;;;6.13;4.10;;;;;;;13.81;100.00;101287.25;5063823;28;20437;-73
2022/06/06 06:42:39;;;;;;;4.60;3.60;;;;;;;13.89;100.00;101285.19;5061185;28;20425;-74
2022/06/06 06:45:14;;;;;;;8.90;5.07;;;;;;;13.80;100.00;101294.53;5059782;28;20570;-74
2022/06/06 06:47:44;;;;;;;5.67;5.00;;;;;;;13.31;100.00;101191.53;5071243;28;20221;-74
2022/06/06 06:50:22;;;;;;;5.43;4.50;;;;;;;14.06;100.00;101308.97;5066520;28;20441;-74
2022/06/06 06:53:08;;;;;;;4.87;4.03;;;;;;;13.98;100.00;101299.25;5072413;28;20456;-74
2022/06/06 06:55:42;;;;;;;6.73;4.73;;;;;;;13.92;100.00;101309.03;5066423;28;20490;-74
2022/06/06 06:58:46;;;;;;;7.53;5.77;;;;;;;13.96;100.00;101304.84;5066866;28;20880;-74
2022/06/06 07:01:21;;;;;;;6.87;5.40;;;;;;;13.66;100.00;101277.53;5057909;28;20448;-74
2022/06/06 07:09:52;;;;;;;7.33;5.87;;;;;;;13.99;100.00;101298.22;5066645;28;20468;-74
2022/06/06 07:12:43;;;;;;;12.23;5.13;;;;;;;14.12;100.00;101316.25;5059153;28;20464;-75
2022/06/06 07:15:40;;;;;;;6.37;5.70;;;;;;;14.14;100.00;101290.72;5070735;28;20554;-75
2022/06/06 07:18:08;;;;;;;7.10;6.40;;;;;;;13.87;100.00;101257.56;5070156;28;20447;-74
2022/06/06 07:20:38;;;;;;;8.80;6.13;;;;;;;14.20;100.00;101299.81;5072034;28;20472;-75
2022/06/06 07:23:08;;;;;;;9.47;6.40;;;;;;;14.09;100.00;101262.72;5070311;28;20460;-74
2022/06/06 07:25:48;;;;;;;9.30;6.20;;;;;;;14.28;100.00;101301.47;5065692;28;20787;-73
2022/06/06 07:28:22;;;;;;;11.80;7.97;;;;;;;13.90;100.00;101214.00;5070034;28;20433;-74
2022/06/06 07:30:51;;;;;;;7.17;6.27;;;;;;;14.45;100.00;101297.28;5063418;28;20538;-74
2022/06/06 07:33:31;;;;;;;8.07;6.80;;;;;;;14.42;100.00;101292.31;5071572;28;20538;-74
2022/06/06 07:36:14;;;;;;;6.10;4.63;;;;;;;14.52;100.00;101308.06;5062907;28;20465;-74
2022/06/06 07:39:06;;;;;;;4.70;3.63;;;;;;;14.43;100.00;101308.25;5052133;28;20420;-74
2022/06/06 07:41:50;;;;;;;8.10;4.00;;;;;;;14.57;100.00;101300.97;5063745;28;20428;-74
2022/06/06 07:44:31;;;;;;;3.60;2.93;;;;;;;14.56;100.00;101283.13;5072687;28;20442;-75
2022/06/06 07:46:59;;;;;;;6.03;3.77;;;;;;;14.78;100.00;101289.06;5060520;28;20561;-75
2022/06/06 07:49:46;;;;;;;4.73;3.70;;;;;;;14.80;100.00;101257.25;5061193;28;20450;-75
2022/06/06 07:52:33;;;;;;;5.57;4.53;;;;;;;14.83;100.00;101262.22;5058491;28;20503;-72
2022/06/06 07:54:58;;;;;;;5.20;3.87;;;;;;;15.14;100.00;101279.50;5066058;28;20473;-74
2022/06/06 07:57:46;;;;;;;6.73;4.17;;;;;;;14.22;100.00;101185.25;5067500;28;20445;-74
2022/06/06 08:00:21;;;;;;;4.10;3.70;;;;;;;14.71;100.00;101166.75;5064280;28;20178;-76
2022/06/06 08:03:12;;;;;;;7.37;4.13;;;;;;;15.20;100.00;101270.50;5063257;28;20428;-75
2022/06/06 08:05:44;;;;;;;9.03;4.00;;;;;;;15.06;100.00;101266.25;5056513;28;20506;-74
2022/06/06 08:08:48;;;;;;;6.43;4.47;;;;;;;14.78;100.00;101194.56;5071100;28;20855;-74
2022/06/06 08:11:43;;;;;;;6.77;4.97;;;;;;;14.46;100.00;101136.97;5064016;28;20456;-73
2022/06/06 08:14:14;;;;;;;8.93;4.40;;;;;;;15.39;100.00;101255.22;5062257;28;20456;-74
2022/06/06 08:16:47;;;;;;;5.87;4.37;;;;;;;15.34;100.00;101230.72;5062845;28;21040;-74
2022/06/06 08:19:33;;;;;;;5.97;3.87;;;;;;;15.63;100.00;101245.44;5064213;28;20578;-74
2022/06/06 08:22:00;;;;;;;6.57;4.90;;;;;;;14.99;100.00;101166.34;5057755;28;21213;-74
2022/06/06 08:24:30;;;;;;;6.67;4.60;;;;;;;15.13;100.00;101250.84;5065763;28;20522;-72
2022/06/06 08:26:59;;;;;;;6.50;4.27;;;;;;;15.10;100.00;101256.66;5064762;28;20443;-75
2022/06/06 08:29:25;;;;;;;4.57;4.17;;;;;;;15.22;100.00;101244.13;5065342;28;20954;-74
2022/06/06 08:31:51;;;;;;;5.50;3.37;;;;;;;15.18;100.00;101234.78;5061522;28;20459;-75
2022/06/06 08:34:17;;;;;;;4.87;3.30;;;;;;;14.33;100.00;101078.53;5066978;28;20448;-75
2022/06/06 08:37:04;;;;;;;3.30;2.80;;;;;;;15.53;100.00;101216.16;5061278;28;20662;-76
2022/06/06 08:39:45;;;;;;;7.20;3.10;;;;;;;15.83;100.00;101234.44;5070024;28;20436;-75
2022/06/06 08:42:30;;;;;;;4.30;2.60;;;;;;;15.85;100.00;101215.28;5052817;28;20469;-76
2022/06/06 08:45:21;;;;;;;5.50;3.07;;;;;;;16.14;100.00;101219.09;5033870;28;20879;-76
2022/06/06 08:48:02;;;;;;;4.90;3.20;;;;;;;16.47;100.00;101205.16;5071314;28;20440;-75
2022/06/06 08:50:47;;;;;;;4.87;3.17;;;;;;;16.15;100.00;101159.34;5066765;28;21129;-75
2022/06/06 08:54:00;;;;;;;7.37;3.23;;;;;;;16.53;100.00;101208.84;5059479;28;20479;-76
2022/06/06 08:57:05;;;;;;;4.80;3.60;;;;;;;16.73;100.00;101188.53;5018897;28;20462;-73
2022/06/06 09:00:03;;;;;;;3.80;2.93;;;;;;;16.81;100.00;101190.13;5061805;28;20515;-73
2022/06/06 09:03:03;;;;;;;4.67;3.93;;;;;;;16.45;100.00;101194.56;5062281;28;20455;-73
2022/06/06 09:05:58;;;;;;;4.77;3.50;;;;;;;15.66;100.00;101063.81;5065145;28;20476;-74
2022/06/06 09:08:49;;;;;;;7.37;3.60;;;;;;;16.13;100.00;101115.44;5066100;28;20836;-74
2022/06/06 09:11:26;;;;;;;4.53;3.00;;;;;;;16.56;100.00;101195.66;5055583;28;20462;-74
2022/06/06 09:13:58;;;;;;;6.57;3.27;;;;;;;15.95;100.00;101093.84;5061143;28;20547;-75
2022/06/06 09:16:41;;;;;;;5.97;3.60;;;;;;;16.37;100.00;101175.09;5061109;28;20460;-76
2022/06/06 09:19:32;;;;;;;5.70;3.37;;;;;;;16.43;100.00;101191.28;5066379;28;20468;-74
2022/06/06 09:22:22;;;;;;;4.13;2.97;;;;;;;16.10;100.00;101142.97;5066202;28;20449;-74
2022/06/06 09:25:09;;;;;;;5.70;2.87;;;;;;;16.34;100.00;101178.25;5068308;28;20547;-77
2022/06/06 09:27:52;;;;;;;4.07;3.07;;;;;;;16.39;100.00;101184.63;5068782;28;20429;-74
2022/06/06 09:30:27;;;;;;;5.57;3.63;;;;;;;16.43;100.00;101185.84;5066286;28;21442;-74
2022/06/06 09:33:13;;;;;;;4.50;3.40;;;;;;;16.33;100.00;101180.16;5061710;28;20456;-74
2022/06/06 09:35:58;;;;;;;4.73;3.10;;;;;;;16.34;100.00;101168.25;5063208;28;20496;-74
2022/06/06 09:38:31;;;;;;;5.93;2.90;;;;;;;16.71;100.00;101184.41;5061223;28;20936;-74
2022/06/06 09:40:58;;;;;;;5.07;3.37;;;;;;;16.68;100.00;101174.03;5061331;28;20532;-74
2022/06/06 09:43:26;;;;;;;6.40;3.50;;;;;;;16.58;100.00;101180.03;5071873;28;20788;-74
2022/06/06 09:45:57;;;;;;;3.60;2.73;;;;;;;16.60;100.00;101183.31;5070196;28;21013;-74
2022/06/06 09:48:36;;;;;;;6.37;3.87;;;;;;;16.63;100.00;101190.97;5064523;28;20445;-74
2022/06/06 09:51:16;;;;;;;5.50;3.33;;;;;;;16.64;100.00;101187.22;5065380;28;20826;-74
2022/06/06 09:53:41;;;;;;;4.63;2.80;;;;;;;16.81;100.00;101175.78;5072240;28;20428;-75
2022/06/06 09:59:36;;;;;;;4.10;2.37;;;;;;;17.71;100.00;101164.59;5073348;28;20185;-73
2022/06/06 10:02:39;;;;;;;4.30;2.80;;;;;;;17.39;100.00;101164.16;5077091;28;20447;-73
2022/06/06 10:05:21;;;;;;;4.60;2.60;;;;;;;17.42;100.00;101146.59;5076220;28;20449;-73
2022/06/06 10:08:17;;;;;;;6.27;2.47;;;;;;;17.26;100.00;101150.84;5079065;28;20405;-73
2022/06/06 10:11:04;;;;;;;2.47;2.00;;;;;;;17.41;100.00;101134.91;5077033;28;20437;-74
2022/06/06 10:13:52;;;;;;;2.23;2.00;;;;;;;17.47;100.00;101142.09;5074062;28;20424;-75
2022/06/06 10:16:34;;;;;;;5.10;2.13;;;;;;;17.54;100.00;101112.97;5073796;28;20470;-75
2022/06/06 10:19:21;;;;;;;3.73;1.57;;;;;;;17.48;100.00;101132.09;5078099;28;20866;-75
2022/06/06 10:22:18;;;;;;;2.60;1.77;;;;;;;17.43;100.00;101140.94;5074214;28;20412;-75
2022/06/06 10:25:07;;;;;;;4.97;2.30;;;;;;;17.74;100.00;101128.84;5075163;28;20448;-75
2022/06/06 10:27:53;;;;;;;3.47;1.50;;;;;;;17.73;100.00;101145.38;5071661;28;20431;-74
2022/06/06 10:30:23;;;;;;;2.60;1.70;;;;;;;18.04;100.00;101136.81;5074125;28;20629;-76
2022/06/06 10:32:51;;;;;;;3.47;1.40;;;;;;;17.93;100.00;101148.53;5076311;28;20554;-74
2022/06/06 10:35:36;;;;;;;3.13;1.40;;;;;;;17.83;100.00;101140.19;5077255;28;20457;-74
2022/06/06 10:38:27;;;;;;;6.63;1.70;;;;;;;17.79;100.00;101136.28;5076295;28;20797;-75
2022/06/06 10:41:16;;;;;;;3.10;1.10;;;;;;;17.10;100.00;101071.88;5075068;28;20414;-75
2022/06/06 10:44:00;;;;;;;2.77;1.13;;;;;;;17.75;100.00;101135.09;5077245;28;20623;-78
2022/06/06 10:46:38;;;;;;;5.97;1.20;;;;;;;17.63;100.00;101127.81;5079192;28;20436;-76
2022/06/06 10:49:14;;;;;;;4.90;1.50;;;;;;;17.37;100.00;101167.09;5076170;28;20489;-76
2022/06/06 10:52:11;;;;;;;3.53;1.30;;;;;;;16.73;100.00;101187.72;5077770;28;20452;-76
2022/06/06 10:55:27;;;;;;;5.13;1.83;;;;;;;16.65;100.00;101167.19;5075169;28;20650;-79
2022/06/06 10:58:20;;;;;;;3.83;1.67;;;;;;;16.78;100.00;101187.88;5027844;28;20425;-75
2022/06/06 11:00:52;;;;;;;3.80;1.30;;;;;;;17.53;100.00;101179.13;5078670;28;20423;-83
2022/06/06 11:03:42;;;;;;;3.87;1.57;;;;;;;17.57;100.00;101169.44;5075043;28;20841;-78
2022/06/06 11:06:37;;;;;;;4.47;1.70;;;;;;;17.71;100.00;101166.50;5075125;28;21019;-77
2022/06/06 11:09:34;;;;;;;3.20;1.40;;;;;;;17.31;100.00;101180.78;5077344;28;20417;-78
2022/06/06 11:12:17;;;;;;;4.17;1.60;;;;;;;17.59;100.00;101180.06;5072430;28;20619;-78
2022/06/06 11:14:44;;;;;;;4.07;1.80;;;;;;;17.83;100.00;101180.91;5089132;28;20460;-76
2022/06/06 11:17:27;;;;;;;3.50;1.13;;;;;;;17.50;100.00;101178.75;5077709;28;20845;-80
2022/06/06 11:20:31;;;;;;;4.53;1.20;;;;;;;17.53;100.00;101192.69;5073800;28;20499;-76
2022/06/06 11:23:01;;;;;;;3.77;1.43;;;;;;;17.34;100.00;101180.31;5060841;28;20451;-76
2022/06/06 11:25:27;;;;;;;5.70;1.20;;;;;;;16.34;100.00;101100.59;5073513;28;20998;-76
2022/06/06 11:28:07;;;;;;;3.70;1.10;;;;;;;16.44;100.00;101195.63;5066423;28;20433;-74
2022/06/06 11:31:04;;;;;;;1.93;0.80;;;;;;;16.47;100.00;101194.34;5072111;28;20628;-75
2022/06/06 11:33:51;;;;;;;1.67;0.67;;;;;;;16.46;100.00;101201.63;5069693;28;20440;-75
2022/06/06 11:36:58;;;;;;;5.33;1.00;;;;;;;15.91;100.00;101054.78;5064322;28;20460;-78
2022/06/06 11:39:44;;;;;;;2.77;1.03;;;;;;;16.87;100.00;101182.97;5067945;28;20431;-73
2022/06/06 11:42:34;;;;;;;4.10;1.10;;;;;;;17.39;100.00;101192.09;5060083;28;20424;-73
2022/06/06 11:45:35;;;;;;;3.83;1.00;;;;;;;17.16;100.00;101154.97;5059715;28;20461;-75
2022/06/06 11:48:01;;;;;;;1.37;1.07;;;;;;;17.19;100.00;101183.47;5070117;28;20469;-73
2022/06/06 11:51:05;;;;;;;2.33;1.13;;;;;;;17.08;100.00;101168.03;5063440;28;20535;-73
2022/06/06 11:53:59;;;;;;;2.27;1.20;;;;;;;17.29;100.00;101188.31;5058161;28;21120;-74
2022/06/06 11:56:43;;;;;;;3.13;1.17;;;;;;;17.36;100.00;101195.28;5069012;28;20452;-74
2022/06/06 11:59:39;;;;;;;5.73;1.60;;;;;;;17.04;100.00;101183.94;5072727;28;21304;-73
2022/06/06 12:02:40;;;;;;;2.63;1.30;;;;;;;16.95;100.00;101169.06;5068847;28;20448;-73
2022/06/06 12:05:14;;;;;;;5.37;1.50;;;;;;;16.85;100.00;101199.44;5069301;28;20448;-74
2022/06/06 12:08:25;;;;;;;4.93;1.60;;;;;;;16.67;100.00;101165.09;5066615;28;20434;-73
2022/06/06 12:11:10;;;;;;;8.40;1.20;;;;;;;17.33;100.00;101200.34;5067584;28;20472;-75
2022/06/06 12:14:00;;;;;;;3.07;0.90;;;;;;;16.59;100.00;101091.47;5072483;28;20437;-80
2022/06/06 12:16:43;;;;;;;4.17;1.43;;;;;;;17.39;100.00;101194.00;5069445;28;20469;-79
2022/06/06 12:19:38;;;;;;;2.53;1.00;;;;;;;16.94;100.00;101162.00;5066094;28;20425;-82
2022/06/06 12:22:37;;;;;;;4.10;1.20;;;;;;;17.28;100.00;101171.22;5063148;28;20445;-73
2022/06/06 12:25:41;;;;;;;2.20;0.90;;;;;;;17.83;100.00;101186.31;5065508;28;20456;-74
2022/06/06 12:28:26;;;;;;;2.83;1.00;;;;;;;17.64;100.00;101161.19;5053451;28;20812;-74
2022/06/06 12:31:32;;;;;;;3.63;0.90;;;;;;;17.30;100.00;101168.25;5063511;28;20429;-75
2022/06/06 12:34:10;;;;;;;3.63;1.10;;;;;;;17.00;100.00;101158.34;5066568;28;20454;-74